sensor_id;sensor_type;location;lat;lon;timestamp;P1;durP1;ratioP1;P2;durP2;ratioP2
74636;SDS011;63141;54.616;39.754;2022-10-31T00:02:08;1.33;;;0.52;;
74636;SDS011;63141;54.616;39.754;2022-10-31T00:05:09;0.68;;;0.38;;
74636;SDS011;63141;54.616;39.754;2022-10-31T00:08:14;0.80;;;0.30;;
74636;SDS011;63141;54.616;39.754;2022-10-31T00:11:16;0.70;;;0.50;;
74636;SDS011;63141;54.616;39.754;2022-10-31T00:14:17;0.65;;;0.40;;
74636;SDS011;63141;54.616;39.754;2022-10-31T00:17:19;1.05;;;0.30;;
74636;SDS011;63141;54.616;39.754;2022-10-31T00:20:20;1.10;;;0.40;;
74636;SDS011;63141;54.616;39.754;2022-10-31T00:23:21;0.75;;;0.50;;
74636;SDS011;63141;54.616;39.754;2022-10-31T00:26:23;0.88;;;0.40;;
74636;SDS011;63141;54.616;39.754;2022-10-31T00:29:24;0.70;;;0.40;;
74636;SDS011;63141;54.616;39.754;2022-10-31T00:32:28;0.80;;;0.43;;
74636;SDS011;63141;54.616;39.754;2022-10-31T00:35:31;0.52;;;0.35;;
74636;SDS011;63141;54.616;39.754;2022-10-31T00:38:33;0.55;;;0.45;;
74636;SDS011;63141;54.616;39.754;2022-10-31T00:41:34;0.45;;;0.40;;
74636;SDS011;63141;54.616;39.754;2022-10-31T00:44:36;1.17;;;0.45;;
74636;SDS011;63141;54.616;39.754;2022-10-31T00:47:37;0.50;;;0.40;;
74636;SDS011;63141;54.616;39.754;2022-10-31T00:50:39;0.77;;;0.40;;
74636;SDS011;63141;54.616;39.754;2022-10-31T00:53:41;0.60;;;0.40;;
74636;SDS011;63141;54.616;39.754;2022-10-31T00:56:42;0.52;;;0.28;;
74636;SDS011;63141;54.616;39.754;2022-10-31T00:59:43;0.68;;;0.30;;
74636;SDS011;63141;54.616;39.754;2022-10-31T01:02:45;2.08;;;0.40;;
74636;SDS011;63141;54.616;39.754;2022-10-31T01:06:06;0.57;;;0.30;;
74636;SDS011;63141;54.616;39.754;2022-10-31T01:09:09;0.47;;;0.30;;
74636;SDS011;63141;54.616;39.754;2022-10-31T01:12:10;0.65;;;0.40;;
74636;SDS011;63141;54.616;39.754;2022-10-31T01:15:14;1.00;;;0.50;;
74636;SDS011;63141;54.616;39.754;2022-10-31T01:18:21;0.63;;;0.20;;
74636;SDS011;63141;54.616;39.754;2022-10-31T01:21:25;0.30;;;0.20;;
74636;SDS011;63141;54.616;39.754;2022-10-31T01:24:32;2.05;;;0.50;;
74636;SDS011;63141;54.616;39.754;2022-10-31T01:27:36;0.40;;;0.30;;
74636;SDS011;63141;54.616;39.754;2022-10-31T01:30:40;0.98;;;0.30;;
74636;SDS011;63141;54.616;39.754;2022-10-31T01:33:41;0.20;;;0.20;;
74636;SDS011;63141;54.616;39.754;2022-10-31T01:36:45;1.00;;;0.40;;
74636;SDS011;63141;54.616;39.754;2022-10-31T01:39:52;0.45;;;0.20;;
74636;SDS011;63141;54.616;39.754;2022-10-31T01:42:53;0.38;;;0.30;;
74636;SDS011;63141;54.616;39.754;2022-10-31T01:45:54;0.40;;;0.30;;
74636;SDS011;63141;54.616;39.754;2022-10-31T01:48:56;1.95;;;0.30;;
74636;SDS011;63141;54.616;39.754;2022-10-31T01:52:01;0.50;;;0.28;;
74636;SDS011;63141;54.616;39.754;2022-10-31T01:55:20;0.40;;;0.22;;
74636;SDS011;63141;54.616;39.754;2022-10-31T01:58:28;0.38;;;0.30;;
74636;SDS011;63141;54.616;39.754;2022-10-31T02:01:34;1.88;;;0.38;;
74636;SDS011;63141;54.616;39.754;2022-10-31T02:04:37;0.77;;;0.30;;
74636;SDS011;63141;54.616;39.754;2022-10-31T02:08:04;0.95;;;0.43;;
74636;SDS011;63141;54.616;39.754;2022-10-31T02:11:07;0.73;;;0.35;;
74636;SDS011;63141;54.616;39.754;2022-10-31T02:14:11;0.70;;;0.20;;
74636;SDS011;63141;54.616;39.754;2022-10-31T02:17:13;0.20;;;0.20;;
74636;SDS011;63141;54.616;39.754;2022-10-31T02:20:16;0.50;;;0.30;;
74636;SDS011;63141;54.616;39.754;2022-10-31T02:23:25;0.60;;;0.30;;
74636;SDS011;63141;54.616;39.754;2022-10-31T02:26:49;0.40;;;0.40;;
74636;SDS011;63141;54.616;39.754;2022-10-31T02:39:34;0.50;;;0.20;;
74636;SDS011;63141;54.616;39.754;2022-10-31T02:42:42;0.30;;;0.20;;
74636;SDS011;63141;54.616;39.754;2022-10-31T02:49:10;1.02;;;0.22;;
74636;SDS011;63141;54.616;39.754;2022-10-31T02:52:18;0.35;;;0.25;;
74636;SDS011;63141;54.616;39.754;2022-10-31T02:58:29;0.30;;;0.28;;
74636;SDS011;63141;54.616;39.754;2022-10-31T03:01:40;1.23;;;0.30;;
74636;SDS011;63141;54.616;39.754;2022-10-31T03:08:22;0.50;;;0.20;;
74636;SDS011;63141;54.616;39.754;2022-10-31T03:11:26;3.25;;;0.20;;
74636;SDS011;63141;54.616;39.754;2022-10-31T03:24:02;0.40;;;0.20;;
74636;SDS011;63141;54.616;39.754;2022-10-31T03:30:14;2.53;;;0.30;;
74636;SDS011;63141;54.616;39.754;2022-10-31T03:33:33;0.70;;;0.30;;
74636;SDS011;63141;54.616;39.754;2022-10-31T03:36:38;0.68;;;0.40;;
74636;SDS011;63141;54.616;39.754;2022-10-31T03:39:42;1.70;;;0.32;;
74636;SDS011;63141;54.616;39.754;2022-10-31T03:42:54;0.63;;;0.22;;
74636;SDS011;63141;54.616;39.754;2022-10-31T03:45:59;3.05;;;0.32;;
74636;SDS011;63141;54.616;39.754;2022-10-31T03:49:02;2.58;;;0.30;;
74636;SDS011;63141;54.616;39.754;2022-10-31T03:58:46;1.63;;;0.50;;
74636;SDS011;63141;54.616;39.754;2022-10-31T04:01:58;2.67;;;0.43;;
74636;SDS011;63141;54.616;39.754;2022-10-31T04:05:03;3.70;;;0.30;;
74636;SDS011;63141;54.616;39.754;2022-10-31T04:08:09;0.85;;;0.38;;
74636;SDS011;63141;54.616;39.754;2022-10-31T04:11:17;1.27;;;0.45;;
74636;SDS011;63141;54.616;39.754;2022-10-31T04:14:38;1.27;;;0.35;;
74636;SDS011;63141;54.616;39.754;2022-10-31T04:17:42;0.52;;;0.20;;
74636;SDS011;63141;54.616;39.754;2022-10-31T04:20:48;3.23;;;0.40;;
74636;SDS011;63141;54.616;39.754;2022-10-31T04:23:51;1.40;;;0.32;;
74636;SDS011;63141;54.616;39.754;2022-10-31T04:26:59;6.22;;;0.40;;
74636;SDS011;63141;54.616;39.754;2022-10-31T04:30:02;0.82;;;0.32;;
74636;SDS011;63141;54.616;39.754;2022-10-31T04:33:06;1.38;;;0.50;;
74636;SDS011;63141;54.616;39.754;2022-10-31T04:36:07;3.65;;;0.40;;
74636;SDS011;63141;54.616;39.754;2022-10-31T04:39:10;0.90;;;0.35;;
74636;SDS011;63141;54.616;39.754;2022-10-31T04:45:18;1.08;;;0.35;;
74636;SDS011;63141;54.616;39.754;2022-10-31T04:48:19;0.38;;;0.20;;
74636;SDS011;63141;54.616;39.754;2022-10-31T04:51:20;4.78;;;0.40;;
74636;SDS011;63141;54.616;39.754;2022-10-31T04:54:22;4.18;;;0.40;;
74636;SDS011;63141;54.616;39.754;2022-10-31T04:57:46;3.90;;;0.50;;
74636;SDS011;63141;54.616;39.754;2022-10-31T05:00:55;0.65;;;0.30;;
74636;SDS011;63141;54.616;39.754;2022-10-31T05:03:57;1.65;;;0.35;;
74636;SDS011;63141;54.616;39.754;2022-10-31T05:07:01;3.00;;;0.40;;
74636;SDS011;63141;54.616;39.754;2022-10-31T05:10:02;2.67;;;0.40;;
74636;SDS011;63141;54.616;39.754;2022-10-31T05:13:05;3.65;;;0.50;;
74636;SDS011;63141;54.616;39.754;2022-10-31T05:16:25;5.07;;;0.40;;
74636;SDS011;63141;54.616;39.754;2022-10-31T05:19:32;1.48;;;0.30;;
74636;SDS011;63141;54.616;39.754;2022-10-31T05:22:54;0.95;;;0.30;;
74636;SDS011;63141;54.616;39.754;2022-10-31T05:25:57;1.83;;;0.20;;
74636;SDS011;63141;54.616;39.754;2022-10-31T05:28:58;0.95;;;0.30;;
74636;SDS011;63141;54.616;39.754;2022-10-31T05:32:00;1.58;;;0.40;;
74636;SDS011;63141;54.616;39.754;2022-10-31T05:35:31;2.63;;;0.40;;
74636;SDS011;63141;54.616;39.754;2022-10-31T05:38:52;0.50;;;0.30;;
74636;SDS011;63141;54.616;39.754;2022-10-31T05:42:04;0.10;;;0.10;;
74636;SDS011;63141;54.616;39.754;2022-10-31T05:45:06;0.93;;;0.30;;
74636;SDS011;63141;54.616;39.754;2022-10-31T05:48:19;1.20;;;0.30;;
74636;SDS011;63141;54.616;39.754;2022-10-31T05:51:56;0.30;;;0.20;;
74636;SDS011;63141;54.616;39.754;2022-10-31T05:55:05;1.92;;;0.47;;
74636;SDS011;63141;54.616;39.754;2022-10-31T05:58:07;2.25;;;0.30;;
74636;SDS011;63141;54.616;39.754;2022-10-31T06:01:12;0.82;;;0.30;;
74636;SDS011;63141;54.616;39.754;2022-10-31T06:04:14;1.20;;;0.45;;
74636;SDS011;63141;54.616;39.754;2022-10-31T06:07:17;1.30;;;0.45;;
74636;SDS011;63141;54.616;39.754;2022-10-31T06:10:19;1.02;;;0.45;;
74636;SDS011;63141;54.616;39.754;2022-10-31T06:13:26;0.68;;;0.30;;
74636;SDS011;63141;54.616;39.754;2022-10-31T06:16:33;0.82;;;0.38;;
74636;SDS011;63141;54.616;39.754;2022-10-31T06:19:51;0.13;;;0.13;;
74636;SDS011;63141;54.616;39.754;2022-10-31T06:22:55;0.25;;;0.10;;
74636;SDS011;63141;54.616;39.754;2022-10-31T06:25:57;0.30;;;0.20;;
74636;SDS011;63141;54.616;39.754;2022-10-31T06:28:58;0.65;;;0.30;;
74636;SDS011;63141;54.616;39.754;2022-10-31T06:32:14;0.40;;;0.30;;
74636;SDS011;63141;54.616;39.754;2022-10-31T06:35:18;0.98;;;0.15;;
74636;SDS011;63141;54.616;39.754;2022-10-31T06:38:19;0.68;;;0.40;;
74636;SDS011;63141;54.616;39.754;2022-10-31T06:41:21;0.35;;;0.20;;
74636;SDS011;63141;54.616;39.754;2022-10-31T06:44:23;0.40;;;0.20;;
74636;SDS011;63141;54.616;39.754;2022-10-31T06:47:34;1.63;;;0.30;;
74636;SDS011;63141;54.616;39.754;2022-10-31T06:50:41;0.63;;;0.30;;
74636;SDS011;63141;54.616;39.754;2022-10-31T06:53:44;0.40;;;0.30;;
74636;SDS011;63141;54.616;39.754;2022-10-31T06:56:47;1.00;;;0.30;;
74636;SDS011;63141;54.616;39.754;2022-10-31T06:59:49;0.35;;;0.20;;
74636;SDS011;63141;54.616;39.754;2022-10-31T07:03:11;1.52;;;0.30;;
74636;SDS011;63141;54.616;39.754;2022-10-31T07:06:14;0.27;;;0.20;;
74636;SDS011;63141;54.616;39.754;2022-10-31T07:09:18;0.32;;;0.22;;
74636;SDS011;63141;54.616;39.754;2022-10-31T07:12:21;0.20;;;0.17;;
74636;SDS011;63141;54.616;39.754;2022-10-31T07:15:32;1.08;;;0.30;;
74636;SDS011;63141;54.616;39.754;2022-10-31T07:18:35;0.37;;;0.20;;
74636;SDS011;63141;54.616;39.754;2022-10-31T07:21:37;0.65;;;0.20;;
74636;SDS011;63141;54.616;39.754;2022-10-31T07:24:38;0.45;;;0.25;;
74636;SDS011;63141;54.616;39.754;2022-10-31T07:27:48;0.73;;;0.25;;
74636;SDS011;63141;54.616;39.754;2022-10-31T07:30:51;1.27;;;0.30;;
74636;SDS011;63141;54.616;39.754;2022-10-31T07:33:55;0.30;;;0.28;;
74636;SDS011;63141;54.616;39.754;2022-10-31T07:36:59;0.95;;;0.25;;
74636;SDS011;63141;54.616;39.754;2022-10-31T07:40:01;0.85;;;0.30;;
74636;SDS011;63141;54.616;39.754;2022-10-31T07:43:05;0.52;;;0.28;;
74636;SDS011;63141;54.616;39.754;2022-10-31T07:46:29;0.30;;;0.30;;
74636;SDS011;63141;54.616;39.754;2022-10-31T07:49:49;0.65;;;0.30;;
74636;SDS011;63141;54.616;39.754;2022-10-31T07:53:11;0.52;;;0.30;;
74636;SDS011;63141;54.616;39.754;2022-10-31T07:56:37;0.88;;;0.30;;
74636;SDS011;63141;54.616;39.754;2022-10-31T07:59:38;0.63;;;0.40;;
74636;SDS011;63141;54.616;39.754;2022-10-31T08:02:43;0.50;;;0.20;;
74636;SDS011;63141;54.616;39.754;2022-10-31T08:06:11;0.50;;;0.40;;
74636;SDS011;63141;54.616;39.754;2022-10-31T08:09:23;0.45;;;0.25;;
74636;SDS011;63141;54.616;39.754;2022-10-31T08:12:28;0.28;;;0.25;;
74636;SDS011;63141;54.616;39.754;2022-10-31T08:15:29;0.38;;;0.30;;
74636;SDS011;63141;54.616;39.754;2022-10-31T08:18:32;0.30;;;0.30;;
74636;SDS011;63141;54.616;39.754;2022-10-31T08:21:33;0.40;;;0.40;;
74636;SDS011;63141;54.616;39.754;2022-10-31T08:24:35;0.20;;;0.20;;
74636;SDS011;63141;54.616;39.754;2022-10-31T08:27:37;1.15;;;0.40;;
74636;SDS011;63141;54.616;39.754;2022-10-31T08:30:38;1.90;;;0.40;;
74636;SDS011;63141;54.616;39.754;2022-10-31T08:34:02;0.50;;;0.30;;
74636;SDS011;63141;54.616;39.754;2022-10-31T08:37:16;0.40;;;0.40;;
74636;SDS011;63141;54.616;39.754;2022-10-31T08:40:23;0.60;;;0.40;;
74636;SDS011;63141;54.616;39.754;2022-10-31T08:43:26;0.35;;;0.30;;
74636;SDS011;63141;54.616;39.754;2022-10-31T08:46:28;0.52;;;0.20;;
74636;SDS011;63141;54.616;39.754;2022-10-31T08:49:29;0.40;;;0.30;;
74636;SDS011;63141;54.616;39.754;2022-10-31T08:52:30;0.25;;;0.20;;
74636;SDS011;63141;54.616;39.754;2022-10-31T08:55:36;0.25;;;0.25;;
74636;SDS011;63141;54.616;39.754;2022-10-31T08:58:42;0.77;;;0.50;;
74636;SDS011;63141;54.616;39.754;2022-10-31T09:01:44;0.32;;;0.28;;
74636;SDS011;63141;54.616;39.754;2022-10-31T09:04:51;1.10;;;0.40;;
74636;SDS011;63141;54.616;39.754;2022-10-31T09:07:56;0.60;;;0.38;;
74636;SDS011;63141;54.616;39.754;2022-10-31T09:10:59;0.30;;;0.30;;
74636;SDS011;63141;54.616;39.754;2022-10-31T09:14:21;0.43;;;0.35;;
74636;SDS011;63141;54.616;39.754;2022-10-31T09:17:52;0.50;;;0.30;;
74636;SDS011;63141;54.616;39.754;2022-10-31T09:21:05;0.70;;;0.30;;
74636;SDS011;63141;54.616;39.754;2022-10-31T09:24:08;0.45;;;0.28;;
74636;SDS011;63141;54.616;39.754;2022-10-31T09:27:09;1.85;;;0.30;;
74636;SDS011;63141;54.616;39.754;2022-10-31T09:30:15;0.30;;;0.30;;
74636;SDS011;63141;54.616;39.754;2022-10-31T09:33:18;0.65;;;0.40;;
74636;SDS011;63141;54.616;39.754;2022-10-31T09:36:28;0.52;;;0.20;;
74636;SDS011;63141;54.616;39.754;2022-10-31T09:39:29;0.28;;;0.28;;
74636;SDS011;63141;54.616;39.754;2022-10-31T09:46:10;0.77;;;0.40;;
74636;SDS011;63141;54.616;39.754;2022-10-31T09:53:13;0.52;;;0.40;;
74636;SDS011;63141;54.616;39.754;2022-10-31T09:56:31;0.52;;;0.25;;
74636;SDS011;63141;54.616;39.754;2022-10-31T09:59:35;0.50;;;0.30;;
74636;SDS011;63141;54.616;39.754;2022-10-31T10:02:53;0.40;;;0.40;;
74636;SDS011;63141;54.616;39.754;2022-10-31T10:09:49;0.75;;;0.32;;
74636;SDS011;63141;54.616;39.754;2022-10-31T10:21:32;0.52;;;0.40;;
74636;SDS011;63141;54.616;39.754;2022-10-31T10:28:25;1.42;;;0.52;;
74636;SDS011;63141;54.616;39.754;2022-10-31T10:31:35;1.35;;;0.70;;
74636;SDS011;63141;54.616;39.754;2022-10-31T10:34:43;1.38;;;0.60;;
74636;SDS011;63141;54.616;39.754;2022-10-31T10:37:49;1.23;;;0.60;;
74636;SDS011;63141;54.616;39.754;2022-10-31T10:40:55;1.05;;;0.60;;
74636;SDS011;63141;54.616;39.754;2022-10-31T10:43:59;1.77;;;0.75;;
74636;SDS011;63141;54.616;39.754;2022-10-31T10:47:00;3.13;;;0.80;;
74636;SDS011;63141;54.616;39.754;2022-10-31T10:50:26;2.05;;;0.68;;
74636;SDS011;63141;54.616;39.754;2022-10-31T11:03:33;3.13;;;0.80;;
74636;SDS011;63141;54.616;39.754;2022-10-31T11:06:36;1.00;;;0.50;;
74636;SDS011;63141;54.616;39.754;2022-10-31T11:09:38;1.13;;;0.80;;
74636;SDS011;63141;54.616;39.754;2022-10-31T11:12:40;1.38;;;0.60;;
74636;SDS011;63141;54.616;39.754;2022-10-31T11:15:54;0.77;;;0.57;;
74636;SDS011;63141;54.616;39.754;2022-10-31T11:19:17;1.10;;;0.60;;
74636;SDS011;63141;54.616;39.754;2022-10-31T11:22:21;3.60;;;0.75;;
74636;SDS011;63141;54.616;39.754;2022-10-31T11:25:23;3.20;;;0.85;;
74636;SDS011;63141;54.616;39.754;2022-10-31T11:28:26;5.25;;;0.63;;
74636;SDS011;63141;54.616;39.754;2022-10-31T11:31:30;7.00;;;0.80;;
74636;SDS011;63141;54.616;39.754;2022-10-31T11:34:32;2.75;;;0.70;;
74636;SDS011;63141;54.616;39.754;2022-10-31T11:37:43;4.28;;;0.65;;
74636;SDS011;63141;54.616;39.754;2022-10-31T11:40:53;2.72;;;0.80;;
74636;SDS011;63141;54.616;39.754;2022-10-31T11:43:59;1.20;;;0.50;;
74636;SDS011;63141;54.616;39.754;2022-10-31T11:47:03;0.95;;;0.70;;
74636;SDS011;63141;54.616;39.754;2022-10-31T11:50:10;2.83;;;0.90;;
74636;SDS011;63141;54.616;39.754;2022-10-31T11:53:20;0.80;;;0.70;;
74636;SDS011;63141;54.616;39.754;2022-10-31T11:56:26;0.65;;;0.63;;
74636;SDS011;63141;54.616;39.754;2022-10-31T11:59:31;3.25;;;0.80;;
74636;SDS011;63141;54.616;39.754;2022-10-31T12:02:35;2.45;;;0.60;;
74636;SDS011;63141;54.616;39.754;2022-10-31T12:05:37;0.57;;;0.50;;
74636;SDS011;63141;54.616;39.754;2022-10-31T12:08:43;1.05;;;0.95;;
74636;SDS011;63141;54.616;39.754;2022-10-31T12:18:41;4.40;;;0.93;;
74636;SDS011;63141;54.616;39.754;2022-10-31T12:22:13;1.95;;;0.80;;
74636;SDS011;63141;54.616;39.754;2022-10-31T12:29:04;1.65;;;0.85;;
74636;SDS011;63141;54.616;39.754;2022-10-31T12:35:26;2.53;;;0.73;;
74636;SDS011;63141;54.616;39.754;2022-10-31T12:58:49;3.03;;;1.20;;
74636;SDS011;63141;54.616;39.754;2022-10-31T13:08:44;2.90;;;1.25;;
74636;SDS011;63141;54.616;39.754;2022-10-31T13:11:53;1.33;;;1.00;;
74636;SDS011;63141;54.616;39.754;2022-10-31T13:15:01;2.42;;;1.13;;
74636;SDS011;63141;54.616;39.754;2022-10-31T13:18:12;4.80;;;1.30;;
74636;SDS011;63141;54.616;39.754;2022-10-31T13:21:27;1.73;;;1.20;;
74636;SDS011;63141;54.616;39.754;2022-10-31T13:24:38;1.35;;;0.93;;
74636;SDS011;63141;54.616;39.754;2022-10-31T13:27:45;2.78;;;1.10;;
74636;SDS011;63141;54.616;39.754;2022-10-31T13:30:52;2.17;;;1.02;;
74636;SDS011;63141;54.616;39.754;2022-10-31T13:33:58;1.38;;;0.90;;
74636;SDS011;63141;54.616;39.754;2022-10-31T13:37:15;3.15;;;1.10;;
74636;SDS011;63141;54.616;39.754;2022-10-31T13:40:34;2.42;;;0.98;;
74636;SDS011;63141;54.616;39.754;2022-10-31T13:43:59;4.80;;;1.05;;
74636;SDS011;63141;54.616;39.754;2022-10-31T13:47:04;3.05;;;1.02;;
74636;SDS011;63141;54.616;39.754;2022-10-31T13:50:30;3.53;;;1.13;;
74636;SDS011;63141;54.616;39.754;2022-10-31T13:53:41;4.35;;;1.17;;
74636;SDS011;63141;54.616;39.754;2022-10-31T13:56:52;5.78;;;1.08;;
74636;SDS011;63141;54.616;39.754;2022-10-31T13:59:55;1.70;;;1.00;;
74636;SDS011;63141;54.616;39.754;2022-10-31T14:03:01;1.92;;;1.00;;
74636;SDS011;63141;54.616;39.754;2022-10-31T14:06:04;3.85;;;0.98;;
74636;SDS011;63141;54.616;39.754;2022-10-31T14:09:30;5.28;;;1.00;;
74636;SDS011;63141;54.616;39.754;2022-10-31T14:12:38;1.38;;;0.80;;
74636;SDS011;63141;54.616;39.754;2022-10-31T14:15:50;4.20;;;1.02;;
74636;SDS011;63141;54.616;39.754;2022-10-31T14:19:08;2.78;;;1.00;;
74636;SDS011;63141;54.616;39.754;2022-10-31T14:22:20;1.92;;;0.90;;
74636;SDS011;63141;54.616;39.754;2022-10-31T14:25:27;3.43;;;1.10;;
74636;SDS011;63141;54.616;39.754;2022-10-31T14:28:34;1.85;;;0.93;;
74636;SDS011;63141;54.616;39.754;2022-10-31T14:31:37;4.22;;;1.00;;
74636;SDS011;63141;54.616;39.754;2022-10-31T14:34:57;1.35;;;1.00;;
74636;SDS011;63141;54.616;39.754;2022-10-31T14:41:37;2.03;;;1.08;;
74636;SDS011;63141;54.616;39.754;2022-10-31T14:51:16;2.17;;;0.75;;
74636;SDS011;63141;54.616;39.754;2022-10-31T14:54:24;2.10;;;0.90;;
74636;SDS011;63141;54.616;39.754;2022-10-31T14:57:35;3.28;;;1.00;;
74636;SDS011;63141;54.616;39.754;2022-10-31T15:00:39;4.85;;;1.17;;
74636;SDS011;63141;54.616;39.754;2022-10-31T15:03:49;3.92;;;1.27;;
74636;SDS011;63141;54.616;39.754;2022-10-31T15:06:52;3.65;;;1.42;;
74636;SDS011;63141;54.616;39.754;2022-10-31T15:10:02;4.70;;;1.30;;
74636;SDS011;63141;54.616;39.754;2022-10-31T15:13:20;6.25;;;1.60;;
74636;SDS011;63141;54.616;39.754;2022-10-31T15:16:24;9.07;;;1.90;;
74636;SDS011;63141;54.616;39.754;2022-10-31T15:19:28;8.27;;;2.08;;
74636;SDS011;63141;54.616;39.754;2022-10-31T15:22:31;7.47;;;2.03;;
74636;SDS011;63141;54.616;39.754;2022-10-31T15:25:33;8.73;;;2.22;;
74636;SDS011;63141;54.616;39.754;2022-10-31T15:28:35;4.65;;;1.77;;
74636;SDS011;63141;54.616;39.754;2022-10-31T15:31:37;7.53;;;1.90;;
74636;SDS011;63141;54.616;39.754;2022-10-31T15:34:38;4.38;;;1.70;;
74636;SDS011;63141;54.616;39.754;2022-10-31T15:37:42;7.80;;;1.88;;
74636;SDS011;63141;54.616;39.754;2022-10-31T15:40:50;5.32;;;1.70;;
74636;SDS011;63141;54.616;39.754;2022-10-31T15:43:55;3.60;;;1.80;;
74636;SDS011;63141;54.616;39.754;2022-10-31T15:47:22;4.15;;;1.63;;
74636;SDS011;63141;54.616;39.754;2022-10-31T15:53:47;5.18;;;1.70;;
74636;SDS011;63141;54.616;39.754;2022-10-31T15:56:51;5.82;;;1.55;;
74636;SDS011;63141;54.616;39.754;2022-10-31T15:59:53;6.50;;;1.77;;
74636;SDS011;63141;54.616;39.754;2022-10-31T16:06:20;3.60;;;1.70;;
74636;SDS011;63141;54.616;39.754;2022-10-31T16:09:22;4.75;;;1.45;;
74636;SDS011;63141;54.616;39.754;2022-10-31T16:12:27;6.13;;;1.70;;
74636;SDS011;63141;54.616;39.754;2022-10-31T16:15:50;5.47;;;1.45;;
74636;SDS011;63141;54.616;39.754;2022-10-31T16:18:55;8.63;;;1.60;;
74636;SDS011;63141;54.616;39.754;2022-10-31T16:22:02;4.10;;;1.48;;
74636;SDS011;63141;54.616;39.754;2022-10-31T16:28:25;2.60;;;1.10;;
74636;SDS011;63141;54.616;39.754;2022-10-31T16:31:29;2.15;;;1.30;;
74636;SDS011;63141;54.616;39.754;2022-10-31T16:34:36;6.07;;;1.58;;
74636;SDS011;63141;54.616;39.754;2022-10-31T16:37:38;6.35;;;1.10;;
74636;SDS011;63141;54.616;39.754;2022-10-31T16:40:43;3.60;;;1.40;;
74636;SDS011;63141;54.616;39.754;2022-10-31T16:43:45;3.25;;;1.23;;
74636;SDS011;63141;54.616;39.754;2022-10-31T16:46:47;7.50;;;1.13;;
74636;SDS011;63141;54.616;39.754;2022-10-31T16:49:48;4.30;;;1.00;;
74636;SDS011;63141;54.616;39.754;2022-10-31T16:52:50;4.53;;;1.10;;
74636;SDS011;63141;54.616;39.754;2022-10-31T16:55:56;2.72;;;1.10;;
74636;SDS011;63141;54.616;39.754;2022-10-31T16:59:00;5.43;;;1.17;;
74636;SDS011;63141;54.616;39.754;2022-10-31T17:02:03;4.45;;;1.00;;
74636;SDS011;63141;54.616;39.754;2022-10-31T17:05:11;3.50;;;1.30;;
74636;SDS011;63141;54.616;39.754;2022-10-31T17:11:17;4.43;;;1.35;;
74636;SDS011;63141;54.616;39.754;2022-10-31T17:14:21;3.35;;;1.20;;
74636;SDS011;63141;54.616;39.754;2022-10-31T17:17:22;3.92;;;0.90;;
74636;SDS011;63141;54.616;39.754;2022-10-31T17:20:27;4.80;;;1.05;;
74636;SDS011;63141;54.616;39.754;2022-10-31T17:23:30;7.07;;;1.20;;
74636;SDS011;63141;54.616;39.754;2022-10-31T17:26:33;3.80;;;1.00;;
74636;SDS011;63141;54.616;39.754;2022-10-31T17:29:34;4.13;;;1.00;;
74636;SDS011;63141;54.616;39.754;2022-10-31T17:32:36;1.45;;;1.02;;
74636;SDS011;63141;54.616;39.754;2022-10-31T17:35:37;2.00;;;0.75;;
74636;SDS011;63141;54.616;39.754;2022-10-31T17:38:38;2.60;;;0.80;;
74636;SDS011;63141;54.616;39.754;2022-10-31T17:41:40;6.18;;;1.25;;
74636;SDS011;63141;54.616;39.754;2022-10-31T17:44:41;2.88;;;1.10;;
74636;SDS011;63141;54.616;39.754;2022-10-31T17:47:42;5.15;;;0.90;;
74636;SDS011;63141;54.616;39.754;2022-10-31T17:50:47;3.45;;;1.10;;
74636;SDS011;63141;54.616;39.754;2022-10-31T17:53:48;2.00;;;0.77;;
74636;SDS011;63141;54.616;39.754;2022-10-31T17:56:51;2.28;;;1.00;;
74636;SDS011;63141;54.616;39.754;2022-10-31T17:59:53;2.47;;;0.93;;
74636;SDS011;63141;54.616;39.754;2022-10-31T18:02:57;1.73;;;0.90;;
74636;SDS011;63141;54.616;39.754;2022-10-31T18:05:58;6.38;;;1.38;;
74636;SDS011;63141;54.616;39.754;2022-10-31T18:09:03;4.35;;;1.13;;
74636;SDS011;63141;54.616;39.754;2022-10-31T18:12:05;4.18;;;1.00;;
74636;SDS011;63141;54.616;39.754;2022-10-31T18:15:06;6.70;;;1.20;;
74636;SDS011;63141;54.616;39.754;2022-10-31T18:18:08;4.68;;;1.40;;
74636;SDS011;63141;54.616;39.754;2022-10-31T18:21:09;5.90;;;1.25;;
74636;SDS011;63141;54.616;39.754;2022-10-31T18:24:11;6.07;;;1.27;;
74636;SDS011;63141;54.616;39.754;2022-10-31T18:27:12;5.18;;;1.40;;
74636;SDS011;63141;54.616;39.754;2022-10-31T18:30:14;7.32;;;1.13;;
74636;SDS011;63141;54.616;39.754;2022-10-31T18:33:15;9.30;;;1.35;;
74636;SDS011;63141;54.616;39.754;2022-10-31T18:36:17;3.22;;;1.20;;
74636;SDS011;63141;54.616;39.754;2022-10-31T18:39:18;18.67;;;1.30;;
74636;SDS011;63141;54.616;39.754;2022-10-31T18:42:19;7.53;;;1.15;;
74636;SDS011;63141;54.616;39.754;2022-10-31T18:45:21;7.70;;;1.10;;
74636;SDS011;63141;54.616;39.754;2022-10-31T18:48:22;5.15;;;1.13;;
74636;SDS011;63141;54.616;39.754;2022-10-31T18:51:23;6.68;;;1.20;;
74636;SDS011;63141;54.616;39.754;2022-10-31T18:54:25;5.47;;;1.17;;
74636;SDS011;63141;54.616;39.754;2022-10-31T18:57:26;8.43;;;1.33;;
74636;SDS011;63141;54.616;39.754;2022-10-31T19:00:28;5.07;;;1.40;;
74636;SDS011;63141;54.616;39.754;2022-10-31T19:03:34;8.95;;;1.30;;
74636;SDS011;63141;54.616;39.754;2022-10-31T19:06:36;10.35;;;1.83;;
74636;SDS011;63141;54.616;39.754;2022-10-31T19:09:38;7.80;;;1.50;;
74636;SDS011;63141;54.616;39.754;2022-10-31T19:12:39;12.95;;;1.63;;
74636;SDS011;63141;54.616;39.754;2022-10-31T19:15:40;8.98;;;1.42;;
74636;SDS011;63141;54.616;39.754;2022-10-31T19:18:42;6.93;;;1.20;;
74636;SDS011;63141;54.616;39.754;2022-10-31T19:21:44;5.60;;;1.20;;
74636;SDS011;63141;54.616;39.754;2022-10-31T19:24:46;8.43;;;1.45;;
74636;SDS011;63141;54.616;39.754;2022-10-31T19:27:48;10.00;;;1.40;;
74636;SDS011;63141;54.616;39.754;2022-10-31T19:30:53;12.23;;;1.23;;
74636;SDS011;63141;54.616;39.754;2022-10-31T19:33:54;7.03;;;1.42;;
74636;SDS011;63141;54.616;39.754;2022-10-31T19:36:56;8.52;;;1.50;;
74636;SDS011;63141;54.616;39.754;2022-10-31T19:39:57;6.35;;;1.30;;
74636;SDS011;63141;54.616;39.754;2022-10-31T19:42:59;6.35;;;1.25;;
74636;SDS011;63141;54.616;39.754;2022-10-31T19:46:01;5.63;;;1.20;;
74636;SDS011;63141;54.616;39.754;2022-10-31T19:49:04;9.35;;;1.40;;
74636;SDS011;63141;54.616;39.754;2022-10-31T19:52:05;8.50;;;1.15;;
74636;SDS011;63141;54.616;39.754;2022-10-31T19:55:06;5.88;;;1.13;;
74636;SDS011;63141;54.616;39.754;2022-10-31T19:58:08;8.80;;;1.27;;
74636;SDS011;63141;54.616;39.754;2022-10-31T20:01:14;7.47;;;1.13;;
74636;SDS011;63141;54.616;39.754;2022-10-31T20:04:17;7.60;;;1.10;;
74636;SDS011;63141;54.616;39.754;2022-10-31T20:07:21;6.80;;;1.63;;
74636;SDS011;63141;54.616;39.754;2022-10-31T20:10:22;5.85;;;0.93;;
74636;SDS011;63141;54.616;39.754;2022-10-31T20:13:25;6.32;;;0.95;;
74636;SDS011;63141;54.616;39.754;2022-10-31T20:16:28;3.45;;;0.70;;
74636;SDS011;63141;54.616;39.754;2022-10-31T20:19:30;3.63;;;1.00;;
74636;SDS011;63141;54.616;39.754;2022-10-31T20:22:31;8.32;;;1.00;;
74636;SDS011;63141;54.616;39.754;2022-10-31T20:25:32;6.03;;;0.90;;
74636;SDS011;63141;54.616;39.754;2022-10-31T20:28:34;4.50;;;0.80;;
74636;SDS011;63141;54.616;39.754;2022-10-31T20:31:35;3.40;;;0.75;;
74636;SDS011;63141;54.616;39.754;2022-10-31T20:34:37;4.43;;;1.00;;
74636;SDS011;63141;54.616;39.754;2022-10-31T20:37:39;4.88;;;1.00;;
74636;SDS011;63141;54.616;39.754;2022-10-31T20:40:40;5.00;;;1.02;;
74636;SDS011;63141;54.616;39.754;2022-10-31T20:43:42;3.80;;;0.70;;